ADDS METAR Data

Data at: 0534 UTC 19 Jan 2018

METAR for:KIZG (Fryeburg/Eastern Slo, ME, US)
Text:KIZG 190454Z AUTO 00000KT 10SM CLR M14/M14 A2988 RMK AO2 SLP127 T11391144 410111139
Temperature:-13.9°C ( 7°F)
Dewpoint:-14.4°C ( 6°F) [RH = 96%]
Pressure (altimeter):29.88 inches Hg (1011.9 mb) [Sea level pressure: 1012.7 mb]
Winds:calm
Visibility:10 or more sm (16+ km)
Ceiling:at least 12,000 feet AGL
Clouds:sky clear below 12,000 feet AGL
QC Flag:automated observation with no human augmentation